KMKY Airport (Marco Island Executive) Information

FAA: MKY - ICAO: KMKY

KMKY Airport Location

State Florida
County Collier
City Marco Island
KMKY Airport is 4 miles northeast of Marco Island, FL.
Latitude 25-59-42.1000N
Longitude 081-40-21.1000W
Elevation 5ft

KMKY Airport METARs

METAR KMKY 060656Z AUTO 00000KT 10SM CLR 26/24 A3001 RMK AO2 SLP163 T02560244 TSNO PNO $
Altimeter 30.01"
Temperature 25.6°C (78.1°F)
Wind 0° at 0KT
Clouds Skies are clear.
Visibility 10.0mi
Time observed: 2022-07-06T06:56:00Z

KMKY Airport Details

Status Operational
Activation N/A
Ownership Public
Usage Public
Chart MIAMI
ATC on-site No
Beacon schedule sunset-sunrise
Beacon color clear green

KMKY Airport Contacts

Owner COLLIER COUNTY AIRPORT AUTHORITY
Owner address 2005 MAINSAIL DRIVE, SUITE 1, NAPLES, FL 34114
Owner phone (239)394-3355
Manager GREGG CHAPMAN
Manager address 12648 OVERSEAS HWY, MARATHON, FL 33050
Manager phone 305-393-2595

KMKY Airport (Marco Island Executive) Radio Frequencies

KMKY (Airport) Radio Frequencies

UNICOM 122.7
Common traffic advisory frequency (CTAF) 122.7